Time;durP1;ratioP1;P1;durP2;ratioP2;P2;SDS_P1;SDS_P2;PMS_P1;PMS_P2;Temp;Humidity;BMP_temperature;BMP_pressure;BME280_temperature;BME280_humidity;BME280_pressure;Samples;Min_cycle;Max_cycle;Signal;HPM_P1;HPM_P2
2023/11/04 00:02:09;0.00;0.00;0.62;0.00;0.00;0.62;3.80;2.87;;;23.10;28.40;;;;;;2253206;61;20383;-56
2023/11/04 00:04:55;0.00;0.00;0.62;0.00;0.00;0.62;3.60;2.77;;;23.10;28.50;;;;;;2253026;61;20595;-60
2023/11/04 00:07:40;0.00;0.00;0.62;0.00;0.00;0.62;3.23;2.40;;;23.10;28.40;;;;;;2252602;61;20409;-59
2023/11/04 00:10:24;0.00;0.00;0.62;0.00;0.00;0.62;2.93;2.30;;;23.10;28.40;;;;;;2249763;61;20451;-58
2023/11/04 00:13:10;0.00;0.00;0.62;0.00;0.00;0.62;2.90;2.00;;;23.10;28.40;;;;;;2252838;61;20370;-60
2023/11/04 00:15:56;0.00;0.00;0.62;0.00;0.00;0.62;3.97;2.57;;;23.10;28.40;;;;;;2253082;61;20892;-61
2023/11/04 00:18:40;0.00;0.00;0.62;0.00;0.00;0.62;3.90;2.70;;;23.10;28.90;;;;;;2249493;61;20390;-59
2023/11/04 00:21:26;0.00;0.00;0.62;0.00;0.00;0.62;2.70;2.30;;;23.10;28.40;;;;;;2252641;61;20409;-58
2023/11/04 00:24:11;0.00;0.00;0.62;0.00;0.00;0.62;3.40;2.63;;;23.10;28.40;;;;;;2252851;61;20792;-60
2023/11/04 00:26:56;0.00;0.00;0.62;0.00;0.00;0.62;3.50;2.77;;;23.10;28.40;;;;;;2253018;61;20398;-59
2023/11/04 00:29:43;0.00;0.00;0.62;0.00;0.00;0.62;3.33;2.60;;;23.10;28.40;;;;;;2249036;61;20363;-59
2023/11/04 00:32:28;0.00;0.00;0.62;0.00;0.00;0.62;3.00;2.70;;;23.10;28.40;;;;;;2249801;61;20367;-56
2023/11/04 00:35:12;0.00;0.00;0.62;0.00;0.00;0.62;2.97;2.67;;;23.10;28.40;;;;;;2249502;61;20387;-61
2023/11/04 00:37:57;0.00;0.00;0.62;0.00;0.00;0.62;3.83;2.63;;;23.10;28.40;;;;;;2252589;61;20394;-59
2023/11/04 00:40:42;0.00;0.00;0.62;0.00;0.00;0.62;3.80;2.10;;;23.10;28.40;;;;;;2252890;61;20394;-58
2023/11/04 00:43:26;0.00;0.00;0.62;0.00;0.00;0.62;3.53;2.10;;;23.10;28.40;;;;;;2246852;61;20447;-59
2023/11/04 00:46:13;0.00;0.00;0.62;0.00;0.00;0.62;2.93;1.90;;;23.10;28.40;;;;;;2252926;61;20391;-60
2023/11/04 00:48:59;0.00;0.00;0.62;0.00;0.00;0.62;2.00;1.80;;;23.10;28.40;;;;;;2252655;61;20362;-60
2023/11/04 00:51:44;0.00;0.00;0.62;0.00;0.00;0.62;4.93;2.10;;;23.00;28.30;;;;;;2252403;61;20373;-56
2023/11/04 00:54:28;0.00;0.00;0.62;0.00;0.00;0.62;2.60;2.00;;;23.00;28.30;;;;;;2252853;61;20387;-58
2023/11/04 00:57:13;0.00;0.00;0.62;0.00;0.00;0.62;3.43;2.10;;;23.00;28.30;;;;;;2252754;61;20852;-58
2023/11/04 00:59:58;0.00;0.00;0.62;0.00;0.00;0.62;3.83;2.30;;;23.00;28.40;;;;;;2249368;61;20366;-58
2023/11/04 01:02:45;0.00;0.00;0.62;0.00;0.00;0.62;3.27;1.90;;;23.10;28.40;;;;;;2249439;61;20370;-60
2023/11/04 01:05:30;0.00;0.00;0.62;0.00;0.00;0.62;3.60;2.30;;;23.00;28.30;;;;;;2252438;61;20386;-60
2023/11/04 01:08:14;0.00;0.00;0.62;0.00;0.00;0.62;3.00;2.10;;;23.00;28.40;;;;;;2252458;61;21050;-60
2023/11/04 01:10:59;0.00;0.00;0.62;0.00;0.00;0.62;2.60;2.07;;;23.00;28.40;;;;;;2252701;61;20906;-58
2023/11/04 01:13:44;0.00;0.00;0.62;0.00;0.00;0.62;2.50;1.90;;;23.00;28.40;;;;;;2249210;61;20382;-60
2023/11/04 01:16:28;0.00;0.00;0.62;0.00;0.00;0.62;2.63;2.07;;;23.00;28.30;;;;;;2252784;61;20461;-57
2023/11/04 01:19:14;0.00;0.00;0.62;0.00;0.00;0.62;3.20;1.80;;;23.00;28.30;;;;;;2248989;61;20410;-58
2023/11/04 01:21:59;0.00;0.00;0.62;0.00;0.00;0.62;3.07;2.23;;;23.00;28.30;;;;;;2249513;61;20378;-57
2023/11/04 01:24:43;0.00;0.00;0.62;0.00;0.00;0.62;3.10;2.20;;;23.00;28.40;;;;;;2249423;61;20382;-61
2023/11/04 01:27:28;0.00;0.00;0.62;0.00;0.00;0.62;2.93;1.87;;;23.00;28.30;;;;;;2252610;61;20370;-61
2023/11/04 01:30:13;0.00;0.00;0.62;0.00;0.00;0.62;2.80;1.87;;;23.00;28.30;;;;;;2252041;61;20362;-61
2023/11/04 01:32:58;0.00;0.00;0.62;0.00;0.00;0.62;2.60;1.93;;;23.00;28.30;;;;;;2252732;61;20959;-58
2023/11/04 01:35:44;0.00;0.00;0.62;0.00;0.00;0.62;2.47;2.07;;;23.00;28.30;;;;;;2252300;61;20366;-60
2023/11/04 01:38:28;0.00;0.00;0.62;0.00;0.00;0.62;2.17;1.57;;;23.00;28.30;;;;;;2248991;61;20441;-58
2023/11/04 01:41:13;0.00;0.00;0.62;0.00;0.00;0.62;2.83;1.80;;;23.00;28.30;;;;;;2249758;61;20971;-58
2023/11/04 01:43:58;0.00;0.00;0.62;0.00;0.00;0.62;2.40;1.80;;;23.00;28.30;;;;;;2252582;61;20395;-61
2023/11/04 01:46:43;0.00;0.00;0.62;0.00;0.00;0.62;2.67;1.90;;;23.00;28.30;;;;;;2252497;61;20425;-61
2023/11/04 01:49:29;0.00;0.00;0.62;0.00;0.00;0.62;2.80;1.63;;;22.90;28.20;;;;;;2251676;61;20837;-60
2023/11/04 01:52:16;0.00;0.00;0.62;0.00;0.00;0.62;2.03;1.40;;;23.00;28.30;;;;;;2249212;61;20904;-60
2023/11/04 01:55:02;0.00;0.00;0.62;0.00;0.00;0.62;2.40;1.70;;;23.00;28.30;;;;;;2249348;61;20383;-58
2023/11/04 01:57:47;0.00;0.00;0.62;0.00;0.00;0.62;3.00;2.10;;;22.90;28.20;;;;;;2252243;61;20433;-58
2023/11/04 02:00:32;0.00;0.00;0.62;0.00;0.00;0.62;3.47;2.03;;;23.00;28.30;;;;;;2249253;61;20363;-57
2023/11/04 02:03:17;0.00;0.00;0.62;0.00;0.00;0.62;2.93;2.30;;;22.90;28.30;;;;;;2252188;61;20406;-61
2023/11/04 02:06:02;0.00;0.00;0.62;0.00;0.00;0.62;3.60;2.73;;;22.90;28.20;;;;;;2412241;53;20421;-62
2023/11/04 02:08:48;0.00;0.00;0.62;0.00;0.00;0.62;4.10;2.97;;;22.90;28.20;;;;;;2251831;61;20420;-54
2023/11/04 02:11:33;0.00;0.00;0.62;0.00;0.00;0.62;4.50;3.17;;;22.90;28.20;;;;;;2249180;61;20655;-57
2023/11/04 02:14:18;0.00;0.00;0.62;0.00;0.00;0.62;4.30;3.17;;;22.90;28.20;;;;;;2252457;61;20398;-61
2023/11/04 02:17:03;0.00;0.00;0.62;0.00;0.00;0.62;5.17;3.30;;;22.90;28.20;;;;;;2247835;61;20375;-57
2023/11/04 02:19:49;0.00;0.00;0.62;0.00;0.00;0.62;4.27;3.20;;;22.90;28.20;;;;;;2244671;61;20367;-56
2023/11/04 02:22:35;0.00;0.00;0.62;0.00;0.00;0.62;4.30;2.73;;;22.90;28.20;;;;;;2248518;61;20753;-58
2023/11/04 02:25:19;0.00;0.00;0.62;0.00;0.00;0.62;4.60;3.37;;;22.90;28.20;;;;;;2248033;61;20981;-59
2023/11/04 02:28:05;0.00;0.00;0.62;0.00;0.00;0.62;4.97;3.47;;;22.90;28.20;;;;;;2251987;61;20366;-59
2023/11/04 02:30:50;0.00;0.00;0.62;0.00;0.00;0.62;5.07;3.47;;;22.90;28.20;;;;;;2252334;61;20362;-59
2023/11/04 02:33:34;0.00;0.00;0.62;0.00;0.00;0.62;5.20;3.77;;;22.90;28.20;;;;;;2249226;61;20370;-60
2023/11/04 02:36:19;0.00;0.00;0.62;0.00;0.00;0.62;4.80;3.50;;;22.90;28.30;;;;;;2249511;61;20370;-57
2023/11/04 02:39:06;0.00;0.00;0.62;0.00;0.00;0.62;5.17;4.00;;;22.90;28.30;;;;;;2249052;61;20802;-58
2023/11/04 02:41:51;0.00;0.00;0.62;0.00;0.00;0.62;5.63;3.33;;;22.90;28.30;;;;;;2252402;61;20367;-56
2023/11/04 02:44:35;0.00;0.00;0.62;0.00;0.00;0.62;5.80;3.80;;;22.90;28.30;;;;;;2252109;61;20485;-54
2023/11/04 02:47:19;0.00;0.00;0.62;0.00;0.00;0.62;4.63;3.60;;;22.90;28.30;;;;;;2249592;61;20366;-57
2023/11/04 02:50:06;0.00;0.00;0.62;0.00;0.00;0.62;5.87;4.40;;;22.90;28.30;;;;;;2252209;61;20410;-60
2023/11/04 02:52:51;0.00;0.00;0.62;0.00;0.00;0.62;5.50;4.40;;;22.90;28.30;;;;;;2248980;61;20393;-56
2023/11/04 02:55:37;0.00;0.00;0.62;0.00;0.00;0.62;4.80;3.90;;;22.90;28.30;;;;;;2252395;61;20379;-58
2023/11/04 02:58:21;0.00;0.00;0.62;0.00;0.00;0.62;5.07;3.97;;;22.90;28.30;;;;;;2251734;61;20390;-59
2023/11/04 03:01:06;0.00;0.00;0.62;0.00;0.00;0.62;3.83;3.10;;;22.90;28.30;;;;;;2249134;61;20362;-57
2023/11/04 03:03:51;0.00;0.00;0.62;0.00;0.00;0.62;4.60;3.57;;;22.80;28.20;;;;;;2252249;61;20394;-60
2023/11/04 03:06:36;0.00;0.00;0.62;0.00;0.00;0.62;4.60;3.87;;;22.90;28.30;;;;;;2249184;61;20367;-58
2023/11/04 03:09:21;0.00;0.00;0.62;0.00;0.00;0.62;4.57;3.33;;;22.90;28.30;;;;;;2248799;61;20919;-60
2023/11/04 03:12:07;0.00;0.00;0.62;0.00;0.00;0.62;4.60;3.53;;;22.80;28.20;;;;;;2249111;61;20818;-61
2023/11/04 03:14:52;0.00;0.00;0.62;0.00;0.00;0.62;5.50;4.07;;;22.80;28.20;;;;;;2249197;61;20966;-60
2023/11/04 03:17:37;0.00;0.00;0.62;0.00;0.00;0.62;6.07;4.53;;;22.80;28.20;;;;;;2252293;61;20443;-62
2023/11/04 03:20:22;0.00;0.00;0.62;0.00;0.00;0.62;4.17;3.30;;;22.80;28.20;;;;;;2249023;61;20366;-59
2023/11/04 03:23:06;0.00;0.00;0.62;0.00;0.00;0.62;4.20;3.43;;;22.80;28.20;;;;;;2252297;61;20452;-60
2023/11/04 03:25:51;0.00;0.00;0.62;0.00;0.00;0.62;5.40;3.80;;;22.80;28.20;;;;;;2252076;61;20383;-61
2023/11/04 03:28:37;0.00;0.00;0.62;0.00;0.00;0.62;5.53;3.13;;;22.80;28.10;;;;;;2252391;61;20397;-60
2023/11/04 03:31:22;0.00;0.00;0.62;0.00;0.00;0.62;4.73;3.40;;;22.80;28.10;;;;;;2253076;61;20984;-58
2023/11/04 03:34:06;0.00;0.00;0.62;0.00;0.00;0.62;4.17;3.27;;;22.80;28.10;;;;;;2252889;61;20382;-61
2023/11/04 03:36:51;0.00;0.00;0.62;0.00;0.00;0.62;5.20;3.70;;;22.80;28.10;;;;;;2253101;61;20417;-55
2023/11/04 03:39:36;0.00;0.00;0.62;0.00;0.00;0.62;4.30;2.70;;;22.80;28.10;;;;;;2252556;61;20409;-59
2023/11/04 03:42:20;0.00;0.00;0.62;0.00;0.00;0.62;4.53;3.23;;;22.80;28.10;;;;;;2252725;61;20363;-60
2023/11/04 03:45:06;0.00;0.00;0.62;0.00;0.00;0.62;4.17;3.20;;;22.80;28.10;;;;;;2249727;61;20393;-61
2023/11/04 03:47:51;0.00;0.00;0.62;0.00;0.00;0.62;4.93;3.10;;;22.80;28.10;;;;;;2252618;61;20362;-60
2023/11/04 03:50:35;0.00;0.00;0.62;0.00;0.00;0.62;4.43;3.37;;;22.80;28.10;;;;;;2252951;61;20838;-58
2023/11/04 03:53:20;0.00;0.00;0.62;0.00;0.00;0.62;4.83;3.60;;;22.70;28.00;;;;;;2249557;61;20370;-57
2023/11/04 03:56:06;0.00;0.00;0.62;0.00;0.00;0.62;3.23;2.60;;;22.70;28.00;;;;;;2252806;61;20375;-58
2023/11/04 03:58:50;0.00;0.00;0.62;0.00;0.00;0.62;4.60;3.00;;;22.70;28.00;;;;;;2249291;61;20457;-61
2023/11/04 04:01:40;0.00;0.00;0.62;0.00;0.00;0.62;3.30;2.60;;;22.70;28.00;;;;;;2252943;61;20386;-61
2023/11/04 04:04:25;0.00;0.00;0.62;0.00;0.00;0.62;3.13;2.50;;;22.80;28.10;;;;;;2252716;61;20391;-58
2023/11/04 04:07:10;0.00;0.00;0.62;0.00;0.00;0.62;3.80;2.70;;;22.70;28.00;;;;;;2253238;61;20775;-59
2023/11/04 04:09:54;0.00;0.00;0.62;0.00;0.00;0.62;3.10;2.23;;;22.70;28.50;;;;;;2249266;61;20771;-59
2023/11/04 04:12:39;0.00;0.00;0.62;0.00;0.00;0.62;3.77;2.63;;;22.80;28.00;;;;;;2252977;61;20371;-57
2023/11/04 04:15:23;0.00;0.00;0.62;0.00;0.00;0.62;3.83;2.50;;;22.70;27.90;;;;;;2252755;61;20434;-62
2023/11/04 04:18:10;0.00;0.00;0.62;0.00;0.00;0.62;3.10;2.30;;;22.70;27.90;;;;;;2252235;61;20398;-55
2023/11/04 04:20:55;0.00;0.00;0.62;0.00;0.00;0.62;3.30;2.50;;;22.70;28.00;;;;;;2252804;61;20367;-59
2023/11/04 04:23:39;0.00;0.00;0.62;0.00;0.00;0.62;3.67;2.70;;;22.70;28.00;;;;;;2252801;61;20939;-59
2023/11/04 04:26:24;0.00;0.00;0.62;0.00;0.00;0.62;4.17;2.27;;;22.70;28.00;;;;;;2249572;61;20366;-57
2023/11/04 04:29:08;0.00;0.00;0.62;0.00;0.00;0.62;4.60;2.33;;;22.70;28.00;;;;;;2252537;61;20927;-57
2023/11/04 04:31:53;0.00;0.00;0.62;0.00;0.00;0.62;3.93;2.90;;;22.70;28.00;;;;;;2252950;61;20401;-60
2023/11/04 04:34:39;0.00;0.00;0.62;0.00;0.00;0.62;3.27;2.20;;;22.70;28.00;;;;;;2252838;61;20413;-61
2023/11/04 04:37:24;0.00;0.00;0.62;0.00;0.00;0.62;3.10;2.30;;;22.70;28.00;;;;;;2252803;61;20366;-60
2023/11/04 04:40:10;0.00;0.00;0.62;0.00;0.00;0.62;4.10;2.53;;;22.70;28.10;;;;;;2252243;61;20391;-59
2023/11/04 04:42:55;0.00;0.00;0.62;0.00;0.00;0.62;2.90;2.30;;;22.60;28.00;;;;;;2252613;61;20398;-61
2023/11/04 04:45:39;0.00;0.00;0.62;0.00;0.00;0.62;3.73;2.20;;;22.70;28.10;;;;;;2249608;61;20452;-57
2023/11/04 04:48:24;0.00;0.00;0.62;0.00;0.00;0.62;3.03;2.10;;;22.70;28.10;;;;;;2252158;61;20414;-59
2023/11/04 04:51:10;0.00;0.00;0.62;0.00;0.00;0.62;3.40;2.00;;;22.60;28.00;;;;;;2252771;61;20398;-57
2023/11/04 04:53:55;0.00;0.00;0.62;0.00;0.00;0.62;3.40;2.50;;;22.60;28.00;;;;;;2252692;61;20896;-58
2023/11/04 04:56:39;0.00;0.00;0.62;0.00;0.00;0.62;3.07;2.00;;;22.60;28.00;;;;;;2252569;61;20903;-60
2023/11/04 04:59:24;0.00;0.00;0.62;0.00;0.00;0.62;3.70;2.60;;;22.60;28.00;;;;;;2252349;61;20395;-58
2023/11/04 05:02:09;0.00;0.00;0.62;0.00;0.00;0.62;2.80;1.93;;;22.60;28.00;;;;;;2252820;61;20430;-63
2023/11/04 05:04:54;0.00;0.00;0.62;0.00;0.00;0.62;3.50;1.90;;;22.60;28.00;;;;;;2252563;61;20383;-60
2023/11/04 05:07:40;0.00;0.00;0.62;0.00;0.00;0.62;2.77;1.90;;;22.60;28.00;;;;;;2252829;61;20442;-58
2023/11/04 05:10:25;0.00;0.00;0.62;0.00;0.00;0.62;3.63;2.47;;;22.60;28.00;;;;;;2252525;61;20371;-58
2023/11/04 05:13:09;0.00;0.00;0.62;0.00;0.00;0.62;2.83;2.23;;;22.60;28.00;;;;;;2252708;61;20455;-62
2023/11/04 05:15:54;0.00;0.00;0.62;0.00;0.00;0.62;3.20;2.13;;;22.60;28.00;;;;;;2252554;61;20770;-60
2023/11/04 05:18:38;0.00;0.00;0.62;0.00;0.00;0.62;2.90;1.97;;;22.60;28.00;;;;;;2251938;61;20387;-57
2023/11/04 05:21:25;0.00;0.00;0.62;0.00;0.00;0.62;3.30;1.93;;;22.60;28.00;;;;;;2252776;61;20418;-57
2023/11/04 05:24:10;0.00;0.00;0.62;0.00;0.00;0.62;2.07;1.40;;;22.60;28.00;;;;;;2252736;61;20417;-60
2023/11/04 05:26:55;0.00;0.00;0.62;0.00;0.00;0.62;2.60;1.80;;;22.60;28.00;;;;;;2252427;61;20767;-57
2023/11/04 05:29:40;0.00;0.00;0.62;0.00;0.00;0.62;2.50;1.80;;;22.60;28.00;;;;;;2249195;61;20758;-60
2023/11/04 05:32:25;0.00;0.00;0.62;0.00;0.00;0.62;3.23;2.20;;;22.60;28.00;;;;;;2252396;61;20363;-56
2023/11/04 05:35:09;0.00;0.00;0.62;0.00;0.00;0.62;2.97;1.90;;;22.60;28.00;;;;;;2252618;61;20387;-57
2023/11/04 05:37:54;0.00;0.00;0.62;0.00;0.00;0.62;2.70;2.00;;;22.50;27.90;;;;;;2252290;61;20804;-60
2023/11/04 05:40:41;0.00;0.00;0.62;0.00;0.00;0.62;2.80;1.80;;;22.60;28.00;;;;;;2252568;61;20367;-59
2023/11/04 05:43:28;0.00;0.00;0.62;0.00;0.00;0.62;2.90;1.90;;;22.60;28.00;;;;;;2249439;61;20506;-60
2023/11/04 05:46:13;0.00;0.00;0.62;0.00;0.00;0.62;2.87;2.10;;;22.50;28.00;;;;;;2252616;61;20398;-59
2023/11/04 05:48:57;0.00;0.00;0.62;0.00;0.00;0.62;2.60;1.77;;;22.50;28.00;;;;;;2252171;61;20362;-58
2023/11/04 05:51:42;0.00;0.00;0.62;0.00;0.00;0.62;2.47;1.60;;;22.60;28.10;;;;;;2252358;61;20781;-58
2023/11/04 05:54:26;0.00;0.00;0.62;0.00;0.00;0.62;2.60;1.67;;;22.50;28.00;;;;;;2252402;61;20935;-57
2023/11/04 05:57:13;0.00;0.00;0.62;0.00;0.00;0.62;2.40;1.73;;;22.50;28.00;;;;;;2252543;61;20410;-57
2023/11/04 05:59:57;0.00;0.00;0.62;0.00;0.00;0.62;2.00;1.30;;;22.50;28.00;;;;;;2252225;61;20962;-59
2023/11/04 06:02:43;0.00;0.00;0.62;0.00;0.00;0.62;2.40;1.47;;;22.50;28.10;;;;;;2252553;61;20362;-57
2023/11/04 06:05:28;0.00;0.00;0.62;0.00;0.00;0.62;2.00;1.57;;;22.50;28.10;;;;;;2249432;61;20747;-58
2023/11/04 06:08:12;0.00;0.00;0.62;0.00;0.00;0.62;2.07;1.47;;;22.50;28.10;;;;;;2252038;61;20378;-59
2023/11/04 06:10:56;0.00;0.00;0.62;0.00;0.00;0.62;2.00;1.37;;;22.50;28.10;;;;;;2252479;61;20410;-59
2023/11/04 06:13:44;0.00;0.00;0.62;0.00;0.00;0.62;2.17;1.33;;;22.50;28.10;;;;;;2252442;61;20383;-59
2023/11/04 06:16:33;0.00;0.00;0.62;0.00;0.00;0.62;2.63;1.80;;;22.50;28.10;;;;;;2249314;61;20926;-58
2023/11/04 06:19:18;0.00;0.00;0.62;0.00;0.00;0.62;2.30;1.50;;;22.50;28.10;;;;;;2248852;61;20460;-58
2023/11/04 06:22:03;0.00;0.00;0.62;0.00;0.00;0.62;2.63;1.40;;;22.50;28.10;;;;;;2252559;61;20367;-59
2023/11/04 06:24:48;0.00;0.00;0.62;0.00;0.00;0.62;2.60;1.50;;;22.50;28.10;;;;;;2252248;61;20487;-61
2023/11/04 06:27:32;0.00;0.00;0.62;0.00;0.00;0.62;1.80;1.23;;;22.50;28.10;;;;;;2252564;61;20363;-56
2023/11/04 06:30:18;0.00;0.00;0.62;0.00;0.00;0.62;2.27;1.43;;;22.50;28.10;;;;;;2252287;61;20383;-59
2023/11/04 06:33:03;0.00;0.00;0.62;0.00;0.00;0.62;1.93;1.20;;;22.50;28.10;;;;;;2252345;61;20891;-55
2023/11/04 06:35:48;0.00;0.00;0.62;0.00;0.00;0.62;3.50;1.60;;;22.50;28.30;;;;;;2252476;61;20889;-57
2023/11/04 06:38:32;0.00;0.00;0.62;0.00;0.00;0.62;2.23;1.23;;;22.50;28.10;;;;;;2251738;61;21022;-61
2023/11/04 06:41:17;0.00;0.00;0.62;0.00;0.00;0.62;2.67;1.40;;;22.50;28.10;;;;;;2252489;61;20358;-59
2023/11/04 06:44:02;0.00;0.00;0.62;0.00;0.00;0.62;2.00;1.30;;;22.50;28.10;;;;;;2252657;61;20390;-56
2023/11/04 06:46:48;0.00;0.00;0.62;0.00;0.00;0.62;2.03;1.20;;;22.40;28.00;;;;;;2252398;61;20943;-59
2023/11/04 06:49:33;0.00;0.00;0.62;0.00;0.00;0.62;2.10;1.40;;;22.50;28.00;;;;;;2252090;61;20855;-61
2023/11/04 06:52:18;0.00;0.00;0.62;0.00;0.00;0.62;1.93;1.30;;;22.40;28.00;;;;;;2252743;61;20406;-58
2023/11/04 06:55:04;0.00;0.00;0.62;0.00;0.00;0.62;1.70;1.10;;;22.40;27.90;;;;;;2252154;61;20393;-60
2023/11/04 06:57:48;0.00;0.00;0.62;0.00;0.00;0.62;2.27;1.47;;;22.50;28.00;;;;;;2252284;61;20374;-63
2023/11/04 07:00:33;0.00;0.00;0.62;0.00;0.00;0.62;2.10;1.50;;;22.40;28.00;;;;;;2252147;61;20486;-59
2023/11/04 07:03:19;0.00;0.00;0.62;0.00;0.00;0.62;2.97;1.50;;;22.50;28.00;;;;;;2252474;61;20424;-57
2023/11/04 07:06:10;0.00;0.00;0.62;0.00;0.00;0.62;2.10;1.50;;;22.40;27.90;;;;;;2253110;61;20375;-59
2023/11/04 07:08:55;0.00;0.00;0.62;0.00;0.00;0.62;1.97;1.07;;;22.40;27.90;;;;;;2252557;61;20398;-61
2023/11/04 07:11:43;0.00;0.00;0.62;0.00;0.00;0.62;3.00;1.13;;;22.40;27.90;;;;;;2252961;61;20367;-59
2023/11/04 07:14:31;0.00;0.00;0.62;0.00;0.00;0.62;2.30;1.30;;;22.40;28.40;;;;;;2253044;61;20379;-59
2023/11/04 07:17:15;0.00;0.00;0.62;0.00;0.00;0.62;2.90;1.30;;;22.40;27.90;;;;;;2252747;61;20899;-62
2023/11/04 07:20:04;0.00;0.00;0.62;0.00;0.00;0.62;2.10;1.30;;;22.40;27.90;;;;;;2249373;61;20444;-57
2023/11/04 07:22:50;0.00;0.00;0.62;0.00;0.00;0.62;1.70;1.07;;;22.40;27.90;;;;;;2253016;61;20391;-59
2023/11/04 07:25:34;0.00;0.00;0.62;0.00;0.00;0.62;1.70;1.17;;;22.40;27.90;;;;;;2253117;61;20394;-60
2023/11/04 07:28:19;0.00;0.00;0.62;0.00;0.00;0.62;1.60;1.03;;;22.40;27.90;;;;;;2252600;61;20362;-57
2023/11/04 07:31:05;0.00;0.00;0.62;0.00;0.00;0.62;1.90;1.23;;;22.40;27.90;;;;;;2252975;61;20382;-61
2023/11/04 07:33:50;0.00;0.00;0.62;0.00;0.00;0.62;1.90;1.30;;;22.40;27.90;;;;;;2252918;61;20880;-58
2023/11/04 07:36:37;0.00;0.00;0.62;0.00;0.00;0.62;3.20;1.40;;;22.40;27.90;;;;;;2253078;61;20358;-59
2023/11/04 07:39:22;0.00;0.00;0.62;0.00;0.00;0.62;2.07;1.10;;;22.40;27.90;;;;;;2252418;61;20433;-59
2023/11/04 07:42:07;0.00;0.00;0.62;0.00;0.00;0.62;1.73;1.00;;;22.40;27.90;;;;;;2253026;61;20382;-58
2023/11/04 07:44:52;0.00;0.00;0.62;0.00;0.00;0.62;2.03;1.23;;;22.40;27.90;;;;;;2252890;61;20402;-59
2023/11/04 07:47:36;0.00;0.00;0.62;0.00;0.00;0.62;1.60;1.00;;;22.40;27.90;;;;;;2252895;61;20374;-59
2023/11/04 07:50:21;0.00;0.00;0.62;0.00;0.00;0.62;1.93;1.00;;;22.40;28.00;;;;;;2252878;58;20359;-56
2023/11/04 07:53:08;0.00;0.00;0.62;0.00;0.00;0.62;2.17;1.20;;;22.40;27.90;;;;;;2252638;61;20398;-58
2023/11/04 07:55:53;0.00;0.00;0.62;0.00;0.00;0.62;1.60;1.00;;;22.40;28.00;;;;;;2252698;61;20939;-56
2023/11/04 07:58:38;0.00;0.00;0.62;0.00;0.00;0.62;2.53;1.47;;;22.40;27.90;;;;;;2252263;61;20394;-59
2023/11/04 08:01:22;0.00;0.00;0.62;0.00;0.00;0.62;2.50;1.03;;;22.40;27.90;;;;;;2249332;61;20764;-58
2023/11/04 08:04:08;0.00;0.00;0.62;0.00;0.00;0.62;2.20;1.20;;;22.40;27.90;;;;;;2252737;61;20837;-58
2023/11/04 08:06:52;0.00;0.00;0.62;0.00;0.00;0.62;1.93;1.10;;;22.40;27.90;;;;;;2252752;61;20414;-61
2023/11/04 08:09:41;0.00;0.00;0.62;0.00;0.00;0.62;2.27;1.37;;;22.40;27.90;;;;;;2252315;61;20470;-59
2023/11/04 08:12:26;0.00;0.00;0.62;0.00;0.00;0.62;1.60;0.90;;;22.40;27.90;;;;;;2249359;61;20375;-60
2023/11/04 08:15:12;0.00;0.00;0.62;0.00;0.00;0.62;1.80;1.23;;;22.40;27.90;;;;;;2252302;61;20394;-59
2023/11/04 08:17:59;0.00;0.00;0.62;0.00;0.00;0.62;1.77;1.13;;;22.30;27.90;;;;;;2252450;61;20359;-62
2023/11/04 08:20:44;0.00;0.00;0.62;0.00;0.00;0.62;1.80;1.10;;;22.40;28.00;;;;;;2252970;61;20681;-59
2023/11/04 08:23:28;0.00;0.00;0.62;0.00;0.00;0.62;1.87;1.10;;;22.40;27.90;;;;;;2252570;61;20362;-61
2023/11/04 08:26:14;0.00;0.00;0.62;0.00;0.00;0.62;1.83;1.27;;;22.40;28.00;;;;;;2249702;61;20783;-59
2023/11/04 08:28:59;0.00;0.00;0.62;0.00;0.00;0.62;2.07;1.10;;;22.40;27.90;;;;;;2252394;61;20946;-60
2023/11/04 08:31:44;0.00;0.00;0.62;0.00;0.00;0.62;1.83;1.17;;;22.40;27.90;;;;;;2249608;61;20390;-59
2023/11/04 08:34:28;0.00;0.00;0.62;0.00;0.00;0.62;1.83;1.00;;;22.40;27.90;;;;;;2249520;61;20414;-59
2023/11/04 08:37:13;0.00;0.00;0.62;0.00;0.00;0.62;2.00;1.30;;;22.40;28.00;;;;;;2252584;61;20375;-58
2023/11/04 08:39:58;0.00;0.00;0.62;0.00;0.00;0.62;1.80;1.10;;;22.40;28.00;;;;;;2249223;61;20454;-61
2023/11/04 08:42:44;0.00;0.00;0.62;0.00;0.00;0.62;2.10;1.27;;;22.40;28.20;;;;;;2249856;61;20375;-62
2023/11/04 08:45:28;0.00;0.00;0.62;0.00;0.00;0.62;1.70;1.13;;;22.40;28.20;;;;;;2252163;61;20398;-61
2023/11/04 08:48:13;0.00;0.00;0.62;0.00;0.00;0.62;2.13;1.33;;;22.40;28.30;;;;;;2252430;61;20418;-60
2023/11/04 08:50:57;0.00;0.00;0.62;0.00;0.00;0.62;2.00;1.40;;;22.40;28.30;;;;;;2252851;61;20363;-60
2023/11/04 08:53:42;0.00;0.00;0.62;0.00;0.00;0.62;2.10;1.30;;;22.40;28.30;;;;;;2252963;61;20465;-61
2023/11/04 08:56:26;0.00;0.00;0.62;0.00;0.00;0.62;1.80;1.17;;;22.40;28.30;;;;;;2252696;61;20903;-59
2023/11/04 08:59:14;0.00;0.00;0.62;0.00;0.00;0.62;2.37;1.37;;;22.40;28.30;;;;;;2252043;61;20450;-61
2023/11/04 09:01:59;0.00;0.00;0.62;0.00;0.00;0.62;2.00;1.30;;;22.40;28.30;;;;;;2249639;61;20383;-56
2023/11/04 09:04:44;0.00;0.00;0.62;0.00;0.00;0.62;2.10;1.00;;;22.40;28.30;;;;;;2252691;61;20518;-56
2023/11/04 09:07:29;0.00;0.00;0.62;0.00;0.00;0.62;1.90;1.50;;;22.40;28.30;;;;;;2252690;61;20386;-57
2023/11/04 09:10:15;0.00;0.00;0.62;0.00;0.00;0.62;1.87;1.50;;;22.40;28.30;;;;;;2252572;61;20441;-55
2023/11/04 09:12:59;0.00;0.00;0.62;0.00;0.00;0.62;2.93;1.80;;;22.40;28.30;;;;;;2252916;61;20836;-58
2023/11/04 09:15:45;0.00;0.00;0.62;0.00;0.00;0.62;2.30;1.60;;;22.50;28.30;;;;;;2252430;61;20860;-58
2023/11/04 09:18:30;0.00;0.00;0.62;0.00;0.00;0.62;2.57;1.50;;;22.50;28.30;;;;;;2252254;61;20386;-60
2023/11/04 09:21:15;0.00;0.00;0.62;0.00;0.00;0.62;2.10;1.57;;;22.50;28.30;;;;;;2252677;61;20367;-58
2023/11/04 09:23:59;0.00;0.00;0.62;0.00;0.00;0.62;2.10;1.30;;;22.50;28.30;;;;;;2252665;61;20406;-62
2023/11/04 09:26:44;0.00;0.00;0.62;0.00;0.00;0.62;2.73;1.83;;;22.50;28.30;;;;;;2252674;61;20433;-59
2023/11/04 09:29:28;0.00;0.00;0.62;0.00;0.00;0.62;2.07;1.53;;;22.50;28.40;;;;;;2252227;61;20382;-58
2023/11/04 09:32:14;0.00;0.00;0.62;0.00;0.00;0.62;2.13;1.33;;;22.50;28.30;;;;;;2252700;61;20453;-61
2023/11/04 09:34:59;0.00;0.00;0.62;0.00;0.00;0.62;2.37;1.53;;;22.50;28.30;;;;;;2252311;61;20429;-55
2023/11/04 09:37:44;0.00;0.00;0.62;0.00;0.00;0.62;2.00;1.30;;;22.50;28.30;;;;;;2252568;61;20414;-60
2023/11/04 09:40:29;0.00;0.00;0.62;0.00;0.00;0.62;1.90;1.27;;;22.50;28.30;;;;;;2252556;61;20446;-58
2023/11/04 09:43:16;0.00;0.00;0.62;0.00;0.00;0.62;2.57;1.60;;;22.50;28.30;;;;;;2252420;61;20391;-59
2023/11/04 09:46:02;0.00;0.00;0.62;0.00;0.00;0.62;2.10;1.40;;;22.50;28.30;;;;;;2252446;61;20370;-59
2023/11/04 09:48:49;0.00;0.00;0.62;0.00;0.00;0.62;2.03;1.40;;;22.50;28.30;;;;;;2252230;61;20402;-60
2023/11/04 09:51:33;0.00;0.00;0.62;0.00;0.00;0.62;2.20;1.30;;;22.50;28.30;;;;;;2252320;61;20371;-57
2023/11/04 09:54:18;0.00;0.00;0.62;0.00;0.00;0.62;2.30;1.50;;;22.50;28.30;;;;;;2252494;61;20795;-58
2023/11/04 09:57:03;0.00;0.00;0.62;0.00;0.00;0.62;2.00;1.50;;;22.60;28.40;;;;;;2252502;61;20888;-59
2023/11/04 09:59:48;0.00;0.00;0.62;0.00;0.00;0.62;2.30;1.43;;;22.60;28.40;;;;;;2252181;61;20391;-59
2023/11/04 10:02:32;0.00;0.00;0.62;0.00;0.00;0.62;1.80;1.20;;;22.60;28.40;;;;;;2252406;61;20357;-60
2023/11/04 10:05:19;0.00;0.00;0.62;0.00;0.00;0.62;2.20;1.30;;;22.60;28.40;;;;;;2252310;61;20659;-59
2023/11/04 10:08:04;0.00;0.00;0.62;0.00;0.00;0.62;2.03;1.40;;;22.60;28.40;;;;;;2248754;61;20832;-59
2023/11/04 10:10:49;0.00;0.00;0.62;0.00;0.00;0.62;1.70;1.10;;;22.60;28.40;;;;;;2252580;61;20363;-56
2023/11/04 10:13:34;0.00;0.00;0.62;0.00;0.00;0.62;2.43;1.40;;;22.70;28.50;;;;;;2249155;61;20362;-57
2023/11/04 10:16:19;0.00;0.00;0.62;0.00;0.00;0.62;2.10;1.60;;;22.60;28.40;;;;;;2252526;61;20435;-59
2023/11/04 10:19:04;0.00;0.00;0.62;0.00;0.00;0.62;2.50;1.20;;;22.70;28.50;;;;;;2252033;61;21055;-55
2023/11/04 10:21:51;0.00;0.00;0.62;0.00;0.00;0.62;2.33;1.57;;;22.70;28.50;;;;;;2252335;61;20367;-53
2023/11/04 10:24:36;0.00;0.00;0.62;0.00;0.00;0.62;2.07;1.07;;;22.70;28.50;;;;;;2252639;61;20449;-59
2023/11/04 10:27:21;0.00;0.00;0.62;0.00;0.00;0.62;2.33;1.47;;;22.70;28.50;;;;;;2252449;61;20371;-59
2023/11/04 10:30:07;0.00;0.00;0.62;0.00;0.00;0.62;1.90;1.00;;;22.70;28.50;;;;;;2252146;61;20363;-58
2023/11/04 10:32:54;0.00;0.00;0.62;0.00;0.00;0.62;1.90;1.30;;;22.70;28.50;;;;;;2252447;61;20828;-59
2023/11/04 10:35:42;0.00;0.00;0.62;0.00;0.00;0.62;1.77;1.20;;;22.80;28.50;;;;;;2252126;61;20550;-58
2023/11/04 10:38:30;0.00;0.00;0.62;0.00;0.00;0.62;1.77;1.03;;;22.80;28.50;;;;;;2252031;61;20900;-59
2023/11/04 10:41:18;0.00;0.00;0.62;0.00;0.00;0.62;1.97;1.37;;;22.80;28.50;;;;;;2252487;61;20408;-60
2023/11/04 10:44:11;0.00;0.00;0.62;0.00;0.00;0.62;2.43;1.73;;;22.80;28.60;;;;;;2252373;61;20390;-59
2023/11/04 10:47:08;0.00;0.00;0.62;0.00;0.00;0.62;2.13;1.47;;;22.80;28.50;;;;;;2252337;61;20363;-57
2023/11/04 10:50:01;0.00;0.00;0.62;0.00;0.00;0.62;2.10;1.50;;;22.80;29.10;;;;;;2251872;61;20355;-55
2023/11/04 10:53:01;0.00;0.00;0.62;0.00;0.00;0.62;3.17;1.70;;;22.80;28.50;;;;;;2252569;61;20366;-60